Burnside, Illinois
Current Conditions -  °F | °C
As of 8:55 AM on Friday 24 Oct 2014 (Local Time) from KFSW Reporting Station
Moderate Fog Moderate Fog  
Wind Chill: 54°   Ceiling: 100
Heat Index: 54°   Visibility: 0mi
Dew Point: 54°   Wind: 3mph
Humidity: 100%   Direction: 160°SSE
Pressure: 30.08"   Gusts: NA
Location:  40.5°N, 91.1°W
Report Text: KFSW 241355Z AUTO 16003KT M1/4SM FG OVC001 12/12 A3008 RMK AO2
Loading
Personal Weather Stations






























Interactive Weather Map
Tropical Storm Tracking
New forecast layout! Learn more

10-Day Weather Forecast

Advertisements
Track Severe Weather on mobile